createdAt,value
2022-11-09T00:00:35.775Z,11.63
2022-11-09T00:03:02.696Z,12.05
2022-11-09T00:05:30.758Z,10.82
2022-11-09T00:07:57.561Z,14.98
2022-11-09T00:10:24.500Z,11.93
2022-11-09T00:12:51.257Z,11.57
2022-11-09T00:15:18.080Z,13.68
2022-11-09T00:17:44.819Z,12.18
2022-11-09T00:20:11.757Z,11.32
2022-11-09T00:22:38.633Z,11.02
2022-11-09T00:25:05.839Z,10.20
2022-11-09T00:27:32.562Z,11.80
2022-11-09T00:29:59.345Z,12.93
2022-11-09T00:32:27.913Z,13.07
2022-11-09T00:34:54.896Z,11.05
2022-11-09T00:37:22.849Z,10.35
2022-11-09T00:39:49.867Z,10.07
2022-11-09T00:42:16.714Z,12.77
2022-11-09T00:44:43.609Z,11.57
2022-11-09T00:47:10.315Z,11.32
2022-11-09T00:49:37.127Z,12.27
2022-11-09T00:52:04.036Z,11.43
2022-11-09T00:54:30.806Z,9.30
2022-11-09T00:56:57.666Z,10.63
2022-11-09T00:59:24.699Z,11.43
2022-11-09T01:01:51.534Z,10.85
2022-11-09T01:04:18.417Z,13.55
2022-11-09T01:06:45.259Z,12.50
2022-11-09T01:09:12.896Z,11.68
2022-11-09T01:11:39.811Z,11.38
2022-11-09T01:14:06.666Z,11.50
2022-11-09T01:16:33.466Z,12.38
2022-11-09T01:19:00.373Z,12.73
2022-11-09T01:21:27.931Z,13.02
2022-11-09T01:23:55.907Z,10.82
2022-11-09T01:26:22.726Z,10.77
2022-11-09T01:28:49.552Z,10.20
2022-11-09T01:31:19.101Z,11.68
2022-11-09T01:33:46.154Z,10.85
2022-11-09T01:36:16.017Z,10.35
2022-11-09T01:38:43.487Z,11.02
2022-11-09T01:41:15.878Z,11.80
2022-11-09T01:43:42.762Z,11.13
2022-11-09T01:46:20.708Z,9.73
2022-11-09T01:48:51.842Z,10.00
2022-11-09T01:51:36.127Z,11.70
2022-11-09T01:56:33.124Z,10.95
2022-11-09T01:59:03.951Z,10.55
2022-11-09T02:01:32.206Z,8.95
2022-11-09T02:04:13.071Z,9.18
2022-11-09T02:06:40.027Z,8.82
2022-11-09T02:09:31.497Z,8.52
2022-11-09T02:11:59.338Z,9.27
2022-11-09T02:14:27.952Z,8.85
2022-11-09T02:16:54.758Z,9.05
2022-11-09T02:19:21.495Z,10.18
2022-11-09T02:21:48.342Z,8.75
2022-11-09T02:24:15.359Z,8.40
2022-11-09T02:26:51.456Z,8.73
2022-11-09T02:29:28.395Z,8.25
2022-11-09T02:31:58.816Z,8.82
2022-11-09T02:34:26.005Z,8.63
2022-11-09T02:36:53.150Z,11.35
2022-11-09T02:39:26.587Z,9.32
2022-11-09T02:42:09.079Z,10.35
2022-11-09T02:44:40.939Z,9.77
2022-11-09T02:47:07.675Z,11.15
2022-11-09T02:49:34.487Z,10.02
2022-11-09T02:52:01.464Z,12.13
2022-11-09T02:54:28.313Z,10.48
2022-11-09T02:56:55.337Z,10.20
2022-11-09T02:59:22.063Z,10.40
2022-11-09T03:01:48.864Z,11.27
2022-11-09T03:04:15.705Z,10.40
2022-11-09T03:06:42.576Z,11.27
2022-11-09T03:09:11.632Z,10.23
2022-11-09T03:11:40.339Z,9.30
2022-11-09T03:14:07.347Z,8.18
2022-11-09T03:16:34.228Z,10.88
2022-11-09T03:19:00.962Z,9.68
2022-11-09T03:21:28.677Z,10.23
2022-11-09T03:23:55.463Z,9.65
2022-11-09T03:26:22.947Z,10.48
2022-11-09T03:28:49.766Z,7.68
2022-11-09T03:31:16.557Z,9.30
2022-11-09T03:33:43.393Z,8.55
2022-11-09T03:36:10.274Z,7.20
2022-11-09T03:38:37.109Z,9.02
2022-11-09T03:41:04.299Z,7.72
2022-11-09T03:43:31.299Z,6.82
2022-11-09T03:45:58.188Z,7.75
2022-11-09T03:48:25.043Z,7.18
2022-11-09T03:50:51.824Z,7.28
2022-11-09T03:53:19.041Z,7.55
2022-11-09T03:55:46.104Z,9.25
2022-11-09T03:58:15.668Z,5.70
2022-11-09T04:00:42.502Z,5.47
2022-11-09T04:03:09.456Z,5.32
2022-11-09T04:05:36.344Z,4.40
2022-11-09T04:08:03.232Z,4.32
2022-11-09T04:10:30.097Z,6.25
2022-11-09T04:12:56.947Z,4.80
2022-11-09T04:15:24.051Z,6.65
2022-11-09T04:18:01.280Z,6.28
2022-11-09T04:20:30.076Z,4.72
2022-11-09T04:22:58.783Z,5.43
2022-11-09T04:25:27.722Z,6.10
2022-11-09T04:27:56.107Z,6.63
2022-11-09T04:30:23.415Z,6.55
2022-11-09T04:32:50.702Z,6.00
2022-11-09T04:35:17.614Z,6.68
2022-11-09T04:37:44.459Z,6.57
2022-11-09T04:40:11.889Z,10.20
2022-11-09T04:42:38.658Z,7.13
2022-11-09T04:45:05.920Z,8.85
2022-11-09T04:47:32.703Z,7.88
2022-11-09T04:49:59.462Z,8.05
2022-11-09T04:52:26.267Z,11.25
2022-11-09T04:54:53.012Z,7.18
2022-11-09T04:57:19.742Z,9.13
2022-11-09T04:59:46.580Z,11.10
2022-11-09T05:02:13.499Z,8.52
2022-11-09T05:04:40.377Z,8.50
2022-11-09T05:07:07.221Z,8.88
2022-11-09T05:09:34.040Z,10.02
2022-11-09T05:12:00.741Z,10.73
2022-11-09T05:14:27.549Z,9.70
2022-11-09T05:16:54.402Z,10.27
2022-11-09T05:19:21.333Z,10.80
2022-11-09T05:21:48.094Z,8.23
2022-11-09T05:24:15.029Z,10.55
2022-11-09T05:26:42.414Z,8.07
2022-11-09T05:29:11.758Z,7.65
2022-11-09T05:31:39.689Z,8.75
2022-11-09T05:34:07.302Z,8.30
2022-11-09T05:36:34.157Z,7.43
2022-11-09T05:39:01.264Z,8.93
2022-11-09T05:41:28.186Z,8.23
2022-11-09T05:43:54.987Z,9.27
2022-11-09T05:46:21.962Z,7.38
2022-11-09T05:48:48.859Z,7.82
2022-11-09T05:51:16.213Z,6.82
2022-11-09T05:53:46.399Z,8.13
2022-11-09T05:56:14.768Z,8.77
2022-11-09T05:58:42.164Z,10.00
2022-11-09T06:01:15.360Z,7.57
2022-11-09T06:03:44.315Z,7.60
2022-11-09T06:06:13.689Z,7.50
2022-11-09T06:08:40.922Z,7.85
2022-11-09T06:11:09.946Z,7.80
2022-11-09T06:13:37.212Z,7.05
2022-11-09T06:16:05.973Z,9.27
2022-11-09T06:18:35.386Z,7.70
2022-11-09T06:21:04.265Z,6.53
2022-11-09T06:23:31.641Z,8.35
2022-11-09T06:26:00.404Z,8.50
2022-11-09T06:28:28.144Z,10.63
2022-11-09T06:30:59.681Z,10.02
2022-11-09T06:33:27.226Z,10.65
2022-11-09T06:35:56.513Z,9.38
2022-11-09T06:38:23.971Z,9.20
2022-11-09T06:40:54.720Z,8.90
2022-11-09T06:43:22.475Z,8.93
2022-11-09T06:45:49.608Z,11.05
2022-11-09T06:48:16.619Z,10.27
2022-11-09T06:50:43.528Z,12.02
2022-11-09T06:53:12.846Z,10.77
2022-11-09T06:55:43.339Z,13.93
2022-11-09T06:58:18.572Z,11.18
2022-11-09T07:00:46.044Z,11.75
2022-11-09T07:03:15.461Z,11.35
2022-11-09T07:05:42.736Z,12.85
2022-11-09T07:08:10.048Z,11.60
2022-11-09T07:10:37.260Z,9.52
2022-11-09T07:13:05.122Z,10.57
2022-11-09T07:15:32.753Z,10.10
2022-11-09T07:18:04.297Z,10.65
2022-11-09T07:20:31.993Z,10.15
2022-11-09T07:22:58.969Z,10.85
2022-11-09T07:25:27.433Z,11.68
2022-11-09T07:27:54.623Z,9.55
2022-11-09T07:30:21.768Z,10.13
2022-11-09T07:35:35.971Z,10.48
2022-11-09T07:38:03.087Z,11.52
2022-11-09T07:40:30.596Z,12.27
2022-11-09T07:43:05.337Z,10.15
2022-11-09T07:45:33.733Z,13.30
2022-11-09T07:48:02.825Z,10.32
2022-11-09T07:50:31.096Z,10.30
2022-11-09T07:53:00.292Z,13.25
2022-11-09T07:55:28.816Z,12.55
2022-11-09T07:58:00.369Z,12.80
2022-11-09T08:00:29.394Z,10.85
2022-11-09T08:02:56.410Z,12.23
2022-11-09T08:05:23.656Z,11.50
2022-11-09T08:07:56.098Z,10.95
2022-11-09T08:10:23.740Z,11.32
2022-11-09T08:12:58.963Z,12.57
2022-11-09T08:15:27.222Z,17.33
2022-11-09T08:17:54.610Z,10.77
2022-11-09T08:20:21.955Z,13.05
2022-11-09T08:22:48.921Z,11.48
2022-11-09T08:25:16.271Z,10.25
2022-11-09T08:27:43.314Z,9.15
2022-11-09T08:30:19.700Z,11.40
2022-11-09T08:32:48.065Z,9.20
2022-11-09T08:35:17.976Z,10.75
2022-11-09T08:37:50.169Z,13.98
2022-11-09T08:40:21.037Z,11.10
2022-11-09T08:42:48.418Z,9.85
2022-11-09T08:45:16.080Z,9.65
2022-11-09T08:47:43.564Z,12.25
2022-11-09T08:50:13.264Z,7.70
2022-11-09T08:52:40.757Z,8.30
2022-11-09T08:55:08.260Z,9.45
2022-11-09T08:57:35.424Z,8.82
2022-11-09T09:00:02.492Z,10.48
2022-11-09T09:02:30.647Z,9.15
2022-11-09T09:04:57.550Z,9.55
2022-11-09T09:07:24.550Z,12.02
2022-11-09T09:09:51.606Z,9.52
2022-11-09T09:12:18.908Z,8.38
2022-11-09T09:14:45.932Z,9.70
2022-11-09T09:17:12.881Z,7.85
2022-11-09T09:19:39.746Z,7.13
2022-11-09T09:22:06.815Z,7.18
2022-11-09T09:24:33.784Z,8.52
2022-11-09T09:27:00.685Z,5.97
2022-11-09T09:29:27.560Z,6.97
2022-11-09T09:31:54.384Z,7.65
2022-11-09T09:34:21.432Z,9.70
2022-11-09T09:36:48.649Z,5.55
2022-11-09T09:39:16.124Z,8.50
2022-11-09T09:41:52.573Z,5.10
2022-11-09T09:44:47.469Z,5.88
2022-11-09T09:47:46.743Z,5.55
2022-11-09T09:50:19.042Z,11.63
2022-11-09T09:53:29.092Z,7.72
2022-11-09T09:56:24.369Z,7.13
2022-11-09T09:59:18.613Z,6.03
2022-11-09T10:01:45.885Z,6.93
2022-11-09T10:04:22.478Z,7.40
2022-11-09T10:07:10.346Z,7.95
2022-11-09T10:09:40.031Z,5.60
2022-11-09T10:12:24.904Z,8.52
2022-11-09T10:15:11.967Z,9.07
2022-11-09T10:18:06.294Z,7.50
2022-11-09T10:20:52.842Z,9.73
2022-11-09T10:23:38.945Z,7.68
2022-11-09T10:26:16.684Z,5.72
2022-11-09T10:29:14.354Z,4.10
2022-11-09T10:31:34.433Z,6.57
2022-11-09T10:34:13.041Z,6.13
2022-11-09T10:36:48.001Z,8.20
2022-11-09T10:39:16.240Z,5.35
2022-11-09T10:41:47.011Z,3.90
2022-11-09T10:44:17.670Z,5.43
2022-11-09T10:47:06.942Z,6.47
2022-11-09T10:49:34.369Z,7.15
2022-11-09T10:52:02.379Z,4.82
2022-11-09T10:54:35.291Z,6.15
2022-11-09T10:57:13.110Z,5.60
2022-11-09T10:59:56.329Z,5.72
2022-11-09T11:02:26.285Z,5.50
2022-11-09T11:05:19.393Z,6.47
2022-11-09T11:07:46.751Z,9.27
2022-11-09T11:10:16.551Z,5.68
2022-11-09T11:13:06.541Z,6.82
2022-11-09T11:15:38.772Z,4.65
2022-11-09T11:18:23.621Z,5.20
2022-11-09T11:21:19.036Z,7.03
2022-11-09T11:24:19.628Z,5.45
2022-11-09T11:26:49.493Z,6.30
2022-11-09T11:29:19.495Z,5.00
2022-11-09T11:31:46.454Z,5.32
2022-11-09T11:34:32.193Z,5.38
2022-11-09T11:37:09.993Z,4.00
2022-11-09T11:39:55.373Z,3.92
2022-11-09T11:43:03.610Z,6.20
2022-11-09T11:45:49.665Z,7.85
2022-11-09T11:48:51.155Z,4.38
2022-11-09T11:51:56.176Z,6.07
2022-11-09T11:55:11.281Z,4.25
2022-11-09T12:00:21.746Z,4.28
2022-11-09T12:03:16.751Z,4.80
2022-11-09T12:06:31.629Z,3.58
2022-11-09T12:09:16.343Z,4.78
2022-11-09T12:12:13.286Z,3.58
2022-11-09T12:14:46.636Z,4.45
2022-11-09T12:17:46.380Z,3.35
2022-11-09T12:20:36.390Z,5.05
2022-11-09T12:23:16.221Z,4.85
2022-11-09T12:26:20.229Z,5.15
2022-11-09T12:29:01.534Z,6.47
2022-11-09T12:31:37.284Z,3.58
2022-11-09T12:34:16.394Z,4.55
2022-11-09T12:37:02.049Z,3.92
2022-11-09T12:39:45.628Z,4.38
2022-11-09T12:42:21.481Z,6.60
2022-11-09T12:45:12.336Z,4.40
2022-11-09T12:47:43.421Z,5.93
2022-11-09T12:50:19.715Z,5.03
2022-11-09T12:52:49.038Z,5.07
2022-11-09T12:55:22.777Z,3.63
2022-11-09T12:57:50.016Z,3.53
2022-11-09T13:00:35.332Z,4.18
2022-11-09T13:03:07.799Z,3.35
2022-11-09T13:05:37.830Z,3.20
2022-11-09T13:08:31.976Z,3.45
2022-11-09T13:11:20.755Z,2.58
2022-11-09T13:13:48.017Z,2.60
2022-11-09T13:16:23.857Z,3.33
2022-11-09T13:18:52.140Z,3.67
2022-11-09T13:21:21.822Z,4.13
2022-11-09T13:24:08.071Z,3.83
2022-11-09T13:26:37.008Z,4.05
2022-11-09T13:29:16.209Z,4.45
2022-11-09T13:32:00.297Z,4.00
2022-11-09T13:34:39.312Z,2.95
2022-11-09T13:37:46.121Z,5.65
2022-11-09T13:40:31.647Z,5.82
2022-11-09T13:42:58.501Z,4.28
2022-11-09T13:45:29.823Z,6.55
2022-11-09T13:47:56.669Z,3.58
2022-11-09T13:50:29.003Z,4.25
2022-11-09T13:52:58.795Z,7.13
2022-11-09T13:55:42.384Z,4.25
2022-11-09T13:58:24.617Z,3.67
2022-11-09T14:00:51.489Z,3.67
2022-11-09T14:03:21.512Z,3.75
2022-11-09T14:05:58.108Z,4.10
2022-11-09T14:08:30.745Z,5.82
2022-11-09T14:11:31.694Z,4.43
2022-11-09T14:14:24.091Z,6.35
2022-11-09T14:17:17.169Z,7.38
2022-11-09T14:20:11.902Z,4.82
2022-11-09T14:22:40.747Z,5.53
2022-11-09T14:25:14.790Z,6.90
2022-11-09T14:27:57.426Z,3.70
2022-11-09T14:30:31.685Z,4.15
2022-11-09T14:32:59.306Z,4.18
2022-11-09T14:35:37.339Z,6.25
2022-11-09T14:38:17.977Z,5.63
2022-11-09T14:40:47.263Z,6.20
2022-11-09T14:43:14.032Z,8.98
2022-11-09T14:45:59.217Z,8.38
2022-11-09T14:48:26.657Z,5.85
2022-11-09T14:50:56.442Z,6.57
2022-11-09T14:53:39.058Z,7.18
2022-11-09T14:56:09.621Z,6.88
2022-11-09T14:58:40.796Z,5.63
2022-11-09T15:01:20.179Z,6.85
2022-11-09T15:04:13.272Z,10.98
2022-11-09T15:06:55.364Z,6.20
2022-11-09T15:09:28.026Z,6.75
2022-11-09T15:11:55.110Z,4.85
2022-11-09T15:14:29.979Z,5.72
2022-11-09T15:17:08.091Z,6.20
2022-11-09T15:19:47.375Z,6.72
2022-11-09T15:22:39.275Z,7.13
2022-11-09T15:25:27.712Z,5.70
2022-11-09T15:27:59.219Z,6.18
2022-11-09T15:30:52.364Z,5.45
2022-11-09T15:33:19.582Z,6.45
2022-11-09T15:36:19.448Z,7.65
2022-11-09T15:39:12.658Z,12.52
2022-11-09T15:41:39.573Z,10.00
2022-11-09T15:44:07.572Z,7.57
2022-11-09T15:47:00.450Z,7.90
2022-11-09T15:49:28.738Z,8.88
2022-11-09T15:51:56.260Z,9.65
2022-11-09T15:54:24.281Z,7.85
2022-11-09T15:56:52.020Z,11.32
2022-11-09T15:59:26.749Z,6.85
2022-11-09T16:01:53.938Z,9.55
2022-11-09T16:04:21.011Z,7.68
2022-11-09T16:06:48.077Z,6.63
2022-11-09T16:09:15.777Z,9.27
2022-11-09T16:11:42.738Z,8.23
2022-11-09T16:14:09.527Z,8.50
2022-11-09T16:16:36.340Z,8.30
2022-11-09T16:19:03.094Z,7.97
2022-11-09T16:21:29.855Z,7.78
2022-11-09T16:23:58.711Z,12.10
2022-11-09T16:26:26.036Z,8.98
2022-11-09T16:28:54.802Z,11.73
2022-11-09T16:31:41.140Z,13.82
2022-11-09T16:34:08.398Z,9.00
2022-11-09T16:36:38.238Z,8.07
2022-11-09T16:39:12.749Z,8.15
2022-11-09T16:41:41.919Z,9.73
2022-11-09T16:44:08.879Z,11.32
2022-11-09T16:46:35.745Z,8.32
2022-11-09T16:49:03.956Z,8.20
2022-11-09T16:51:31.194Z,10.75
2022-11-09T16:53:58.047Z,7.85
2022-11-09T16:56:25.344Z,7.65
2022-11-09T16:58:52.260Z,5.45
2022-11-09T17:01:23.430Z,10.30
2022-11-09T17:03:50.637Z,9.15
2022-11-09T17:06:17.654Z,8.25
2022-11-09T17:08:44.496Z,7.75
2022-11-09T17:11:13.413Z,8.23
2022-11-09T17:13:40.565Z,11.10
2022-11-09T17:16:11.072Z,11.85
2022-11-09T17:18:38.409Z,8.93
2022-11-09T17:21:11.281Z,10.48
2022-11-09T17:23:38.729Z,10.52
2022-11-09T17:26:07.729Z,9.65
2022-11-09T17:28:40.047Z,12.82
2022-11-09T17:31:11.857Z,5.97
2022-11-09T17:33:39.168Z,8.05
2022-11-09T17:36:08.716Z,8.23
2022-11-09T17:38:35.683Z,8.65
2022-11-09T17:41:07.869Z,10.35
2022-11-09T17:43:36.895Z,11.38
2022-11-09T17:46:07.900Z,8.05
2022-11-09T17:48:36.079Z,7.72
2022-11-09T17:51:04.299Z,7.82
2022-11-09T17:53:31.775Z,8.43
2022-11-09T17:55:59.213Z,7.32
2022-11-09T17:58:26.290Z,9.75
2022-11-09T18:00:53.608Z,8.55
2022-11-09T18:03:21.276Z,6.35
2022-11-09T18:05:48.140Z,9.93
2022-11-09T18:08:16.348Z,7.03
2022-11-09T18:10:45.472Z,8.10
2022-11-09T18:13:12.330Z,9.23
2022-11-09T18:15:40.091Z,6.93
2022-11-09T18:18:07.091Z,9.52
2022-11-09T18:20:34.262Z,10.00
2022-11-09T18:23:01.110Z,9.10
2022-11-09T18:25:27.988Z,13.13
2022-11-09T18:27:54.827Z,10.27
2022-11-09T18:30:22.840Z,12.88
2022-11-09T18:32:50.669Z,7.57
2022-11-09T18:35:17.644Z,9.27
2022-11-09T18:37:48.739Z,11.80
2022-11-09T18:40:16.614Z,8.35
2022-11-09T18:42:45.389Z,8.15
2022-11-09T18:45:12.254Z,7.88
2022-11-09T18:47:41.743Z,9.60
2022-11-09T18:50:08.690Z,10.20
2022-11-09T18:52:36.957Z,8.90
2022-11-09T18:55:05.102Z,9.80
2022-11-09T18:57:32.712Z,12.60
2022-11-09T18:59:59.599Z,11.60
2022-11-09T19:02:26.516Z,8.15
2022-11-09T19:04:53.393Z,11.98
2022-11-09T19:07:20.180Z,10.00
2022-11-09T19:09:47.091Z,10.27
2022-11-09T19:12:14.874Z,13.32
2022-11-09T19:14:44.005Z,12.40
2022-11-09T19:17:16.860Z,10.20
2022-11-09T19:19:43.656Z,9.88
2022-11-09T19:22:17.044Z,12.38
2022-11-09T19:24:45.449Z,11.15
2022-11-09T19:27:12.850Z,9.68
2022-11-09T19:29:39.700Z,9.95
2022-11-09T19:32:06.576Z,11.73
2022-11-09T19:34:33.437Z,9.07
2022-11-09T19:37:00.607Z,10.73
2022-11-09T19:39:33.430Z,11.18
2022-11-09T19:42:01.213Z,9.55
2022-11-09T19:44:28.084Z,10.90
2022-11-09T19:46:54.992Z,10.20
2022-11-09T19:49:21.905Z,12.13
2022-11-09T19:51:48.875Z,11.40
2022-11-09T19:54:18.737Z,12.88
2022-11-09T19:56:45.682Z,10.55
2022-11-09T19:59:15.129Z,10.75
2022-11-09T20:01:42.659Z,11.93
2022-11-09T20:04:10.746Z,11.60
2022-11-09T20:06:39.144Z,12.32
2022-11-09T20:09:06.083Z,13.45
2022-11-09T20:11:51.595Z,13.77
2022-11-09T20:14:18.626Z,11.90
2022-11-09T20:16:47.909Z,12.52
2022-11-09T20:19:15.091Z,12.77
2022-11-09T20:21:42.135Z,11.75
2022-11-09T20:24:12.068Z,13.55
2022-11-09T20:26:40.385Z,13.63
2022-11-09T20:29:07.206Z,14.10
2022-11-09T20:31:34.380Z,13.77
2022-11-09T20:34:02.574Z,12.82
2022-11-09T20:36:29.710Z,12.85
2022-11-09T20:38:56.636Z,14.02
2022-11-09T20:41:25.525Z,15.15
2022-11-09T20:43:54.193Z,13.50
2022-11-09T20:46:24.423Z,13.48
2022-11-09T20:48:54.713Z,13.98
2022-11-09T20:51:24.449Z,13.52
2022-11-09T20:53:51.775Z,15.95
2022-11-09T20:56:21.183Z,13.63
2022-11-09T20:58:49.170Z,12.20
2022-11-09T21:01:27.175Z,13.48
2022-11-09T21:03:54.942Z,13.88
2022-11-09T21:06:22.241Z,13.35
2022-11-09T21:08:51.958Z,15.23
2022-11-09T21:11:19.703Z,13.48
2022-11-09T21:13:56.097Z,15.40
2022-11-09T21:16:23.703Z,14.82
2022-11-09T21:18:50.551Z,14.23
2022-11-09T21:21:20.429Z,15.68
2022-11-09T21:24:05.932Z,13.23
2022-11-09T21:26:51.425Z,14.48
2022-11-09T21:29:39.607Z,12.57
2022-11-09T21:32:07.806Z,14.60
2022-11-09T21:34:37.166Z,16.25
2022-11-09T21:37:04.664Z,13.75
2022-11-09T21:39:31.585Z,11.18
2022-11-09T21:41:58.747Z,12.77
2022-11-09T21:44:27.565Z,13.48
2022-11-09T21:46:54.493Z,14.25
2022-11-09T21:49:21.420Z,14.20
2022-11-09T21:51:48.340Z,13.05
2022-11-09T21:54:15.239Z,12.98
2022-11-09T21:56:42.263Z,12.25
2022-11-09T21:59:09.681Z,13.02
2022-11-09T22:01:36.653Z,13.55
2022-11-09T22:04:03.565Z,13.63
2022-11-09T22:06:30.655Z,11.63
2022-11-09T22:08:57.664Z,12.20
2022-11-09T22:11:45.302Z,10.65
2022-11-09T22:14:35.630Z,11.05
2022-11-09T22:17:04.057Z,13.07
2022-11-09T22:19:49.427Z,11.20
2022-11-09T22:22:16.610Z,13.68
2022-11-09T22:24:43.449Z,12.07
2022-11-09T22:27:10.597Z,13.93
2022-11-09T22:29:37.641Z,12.30
2022-11-09T22:32:04.918Z,15.40
2022-11-09T22:34:31.953Z,11.18
2022-11-09T22:36:59.006Z,11.75
2022-11-09T22:39:26.030Z,11.75
2022-11-09T22:41:52.910Z,10.25
2022-11-09T22:44:19.821Z,11.07
2022-11-09T22:46:48.345Z,12.57
2022-11-09T22:49:15.500Z,14.05
2022-11-09T22:51:42.259Z,11.65
2022-11-09T22:54:09.199Z,10.48
2022-11-09T22:56:36.068Z,12.57
2022-11-09T22:59:02.913Z,9.23
2022-11-09T23:01:29.987Z,10.27
2022-11-09T23:03:56.929Z,12.85
2022-11-09T23:06:24.094Z,10.95
2022-11-09T23:08:51.491Z,11.05
2022-11-09T23:11:21.478Z,11.15
2022-11-09T23:13:53.761Z,11.15
2022-11-09T23:16:22.165Z,10.52
2022-11-09T23:18:55.751Z,10.13
2022-11-09T23:21:32.199Z,10.50
2022-11-09T23:24:04.472Z,11.45
2022-11-09T23:26:32.961Z,11.00
2022-11-09T23:29:00.609Z,9.65
2022-11-09T23:31:27.775Z,14.73
2022-11-09T23:33:57.223Z,10.43
2022-11-09T23:36:25.629Z,9.80
2022-11-09T23:38:52.831Z,10.45
2022-11-09T23:41:20.077Z,9.82
2022-11-09T23:43:49.634Z,9.52
2022-11-09T23:46:18.004Z,13.85
2022-11-09T23:48:45.567Z,11.15
2022-11-09T23:51:12.790Z,9.90
2022-11-09T23:53:39.730Z,8.82
2022-11-09T23:56:09.943Z,11.25
2022-11-09T23:58:37.248Z,8.48
